sensor_id;sensor_type;location;lat;lon;timestamp;P1;durP1;ratioP1;P2;durP2;ratioP2
41293;SDS011;27037;52.010;4.446;2023-07-09T00:00:52;21.42;;;13.75;;
41293;SDS011;27037;52.010;4.446;2023-07-09T00:03:18;19.25;;;13.15;;
41293;SDS011;27037;52.010;4.446;2023-07-09T00:05:45;18.30;;;13.15;;
41293;SDS011;27037;52.010;4.446;2023-07-09T00:08:34;19.50;;;13.43;;
41293;SDS011;27037;52.010;4.446;2023-07-09T00:10:58;19.15;;;13.50;;
41293;SDS011;27037;52.010;4.446;2023-07-09T00:13:25;22.85;;;14.07;;
41293;SDS011;27037;52.010;4.446;2023-07-09T00:15:52;21.92;;;14.35;;
41293;SDS011;27037;52.010;4.446;2023-07-09T00:18:22;22.27;;;13.70;;
41293;SDS011;27037;52.010;4.446;2023-07-09T00:20:48;20.50;;;14.50;;
41293;SDS011;27037;52.010;4.446;2023-07-09T00:23:14;20.95;;;14.23;;
41293;SDS011;27037;52.010;4.446;2023-07-09T00:25:41;20.77;;;13.90;;
41293;SDS011;27037;52.010;4.446;2023-07-09T00:28:13;22.55;;;14.18;;
41293;SDS011;27037;52.010;4.446;2023-07-09T00:30:44;19.20;;;13.93;;
41293;SDS011;27037;52.010;4.446;2023-07-09T00:33:11;22.52;;;14.50;;
41293;SDS011;27037;52.010;4.446;2023-07-09T00:35:39;20.65;;;14.10;;
41293;SDS011;27037;52.010;4.446;2023-07-09T00:38:08;19.35;;;14.18;;
41293;SDS011;27037;52.010;4.446;2023-07-09T00:40:43;20.40;;;14.43;;
41293;SDS011;27037;52.010;4.446;2023-07-09T00:43:24;19.90;;;14.50;;
41293;SDS011;27037;52.010;4.446;2023-07-09T00:48:39;18.77;;;13.70;;
41293;SDS011;27037;52.010;4.446;2023-07-09T00:51:09;21.70;;;14.25;;
41293;SDS011;27037;52.010;4.446;2023-07-09T00:53:41;19.10;;;13.73;;
41293;SDS011;27037;52.010;4.446;2023-07-09T00:56:15;20.17;;;14.63;;
41293;SDS011;27037;52.010;4.446;2023-07-09T00:58:48;21.50;;;14.47;;
41293;SDS011;27037;52.010;4.446;2023-07-09T01:01:16;21.58;;;14.15;;
41293;SDS011;27037;52.010;4.446;2023-07-09T01:03:47;20.80;;;14.20;;
41293;SDS011;27037;52.010;4.446;2023-07-09T01:06:23;21.70;;;14.82;;
41293;SDS011;27037;52.010;4.446;2023-07-09T01:09:09;22.95;;;14.23;;
41293;SDS011;27037;52.010;4.446;2023-07-09T01:11:35;21.92;;;14.32;;
41293;SDS011;27037;52.010;4.446;2023-07-09T01:14:03;19.88;;;14.65;;
41293;SDS011;27037;52.010;4.446;2023-07-09T01:16:35;19.75;;;14.27;;
41293;SDS011;27037;52.010;4.446;2023-07-09T01:19:04;19.10;;;14.43;;
41293;SDS011;27037;52.010;4.446;2023-07-09T01:21:30;20.10;;;14.98;;
41293;SDS011;27037;52.010;4.446;2023-07-09T01:23:57;23.17;;;14.57;;
41293;SDS011;27037;52.010;4.446;2023-07-09T01:26:24;19.70;;;14.48;;
41293;SDS011;27037;52.010;4.446;2023-07-09T01:28:52;21.27;;;15.10;;
41293;SDS011;27037;52.010;4.446;2023-07-09T01:31:18;22.95;;;15.00;;
41293;SDS011;27037;52.010;4.446;2023-07-09T01:33:45;19.13;;;14.70;;
41293;SDS011;27037;52.010;4.446;2023-07-09T01:36:13;20.90;;;14.80;;
41293;SDS011;27037;52.010;4.446;2023-07-09T01:38:41;23.42;;;14.93;;
41293;SDS011;27037;52.010;4.446;2023-07-09T01:41:07;22.10;;;15.52;;
41293;SDS011;27037;52.010;4.446;2023-07-09T01:43:33;23.77;;;16.15;;
41293;SDS011;27037;52.010;4.446;2023-07-09T01:45:59;20.42;;;14.73;;
41293;SDS011;27037;52.010;4.446;2023-07-09T01:48:25;23.05;;;15.30;;
41293;SDS011;27037;52.010;4.446;2023-07-09T01:50:52;23.58;;;16.33;;
41293;SDS011;27037;52.010;4.446;2023-07-09T01:53:19;22.10;;;15.93;;
41293;SDS011;27037;52.010;4.446;2023-07-09T01:55:48;21.70;;;15.57;;
41293;SDS011;27037;52.010;4.446;2023-07-09T01:58:19;23.50;;;15.45;;
41293;SDS011;27037;52.010;4.446;2023-07-09T02:00:49;24.70;;;15.00;;
41293;SDS011;27037;52.010;4.446;2023-07-09T02:03:15;24.05;;;15.98;;
41293;SDS011;27037;52.010;4.446;2023-07-09T02:05:42;24.40;;;16.02;;
41293;SDS011;27037;52.010;4.446;2023-07-09T02:08:08;21.50;;;15.63;;
41293;SDS011;27037;52.010;4.446;2023-07-09T02:10:34;25.35;;;15.90;;
41293;SDS011;27037;52.010;4.446;2023-07-09T02:12:59;24.92;;;16.13;;
41293;SDS011;27037;52.010;4.446;2023-07-09T02:15:25;20.05;;;14.40;;
41293;SDS011;27037;52.010;4.446;2023-07-09T02:17:51;22.98;;;15.75;;
41293;SDS011;27037;52.010;4.446;2023-07-09T02:20:17;22.40;;;15.52;;
41293;SDS011;27037;52.010;4.446;2023-07-09T02:22:44;23.27;;;15.45;;
41293;SDS011;27037;52.010;4.446;2023-07-09T02:25:10;22.85;;;15.23;;
41293;SDS011;27037;52.010;4.446;2023-07-09T02:27:36;23.52;;;16.00;;
41293;SDS011;27037;52.010;4.446;2023-07-09T02:30:04;24.50;;;16.15;;
41293;SDS011;27037;52.010;4.446;2023-07-09T02:32:31;20.17;;;16.17;;
41293;SDS011;27037;52.010;4.446;2023-07-09T02:34:57;22.40;;;16.17;;
41293;SDS011;27037;52.010;4.446;2023-07-09T02:37:24;25.90;;;15.88;;
41293;SDS011;27037;52.010;4.446;2023-07-09T02:39:51;23.05;;;15.75;;
41293;SDS011;27037;52.010;4.446;2023-07-09T02:42:17;24.00;;;15.85;;
41293;SDS011;27037;52.010;4.446;2023-07-09T02:44:45;21.00;;;14.48;;
41293;SDS011;27037;52.010;4.446;2023-07-09T02:47:11;20.73;;;15.00;;
41293;SDS011;27037;52.010;4.446;2023-07-09T02:49:37;22.05;;;15.32;;
41293;SDS011;27037;52.010;4.446;2023-07-09T02:52:04;22.23;;;15.32;;
41293;SDS011;27037;52.010;4.446;2023-07-09T02:54:30;24.77;;;15.23;;
41293;SDS011;27037;52.010;4.446;2023-07-09T02:56:56;20.85;;;14.93;;
41293;SDS011;27037;52.010;4.446;2023-07-09T02:59:22;22.23;;;15.40;;
41293;SDS011;27037;52.010;4.446;2023-07-09T03:01:48;24.23;;;15.38;;
41293;SDS011;27037;52.010;4.446;2023-07-09T03:04:14;22.20;;;15.00;;
41293;SDS011;27037;52.010;4.446;2023-07-09T03:06:40;22.00;;;14.45;;
41293;SDS011;27037;52.010;4.446;2023-07-09T03:09:06;19.92;;;14.30;;
41293;SDS011;27037;52.010;4.446;2023-07-09T03:11:32;28.00;;;15.60;;
41293;SDS011;27037;52.010;4.446;2023-07-09T03:13:59;19.83;;;15.27;;
41293;SDS011;27037;52.010;4.446;2023-07-09T03:16:27;21.85;;;15.82;;
41293;SDS011;27037;52.010;4.446;2023-07-09T03:18:53;24.15;;;15.50;;
41293;SDS011;27037;52.010;4.446;2023-07-09T03:21:23;23.00;;;15.73;;
41293;SDS011;27037;52.010;4.446;2023-07-09T03:23:49;21.45;;;14.80;;
41293;SDS011;27037;52.010;4.446;2023-07-09T03:26:15;22.55;;;15.45;;
41293;SDS011;27037;52.010;4.446;2023-07-09T03:28:41;24.70;;;15.73;;
41293;SDS011;27037;52.010;4.446;2023-07-09T03:31:07;23.90;;;16.10;;
41293;SDS011;27037;52.010;4.446;2023-07-09T03:33:33;25.45;;;16.88;;
41293;SDS011;27037;52.010;4.446;2023-07-09T03:35:59;23.00;;;15.38;;
41293;SDS011;27037;52.010;4.446;2023-07-09T03:38:24;24.58;;;16.15;;
41293;SDS011;27037;52.010;4.446;2023-07-09T03:40:51;21.55;;;15.77;;
41293;SDS011;27037;52.010;4.446;2023-07-09T03:43:19;25.55;;;15.90;;
41293;SDS011;27037;52.010;4.446;2023-07-09T03:45:46;24.70;;;15.77;;
41293;SDS011;27037;52.010;4.446;2023-07-09T03:48:12;22.25;;;16.08;;
41293;SDS011;27037;52.010;4.446;2023-07-09T03:50:39;28.00;;;18.10;;
41293;SDS011;27037;52.010;4.446;2023-07-09T03:53:06;25.83;;;18.65;;
41293;SDS011;27037;52.010;4.446;2023-07-09T03:55:32;24.83;;;17.98;;
41293;SDS011;27037;52.010;4.446;2023-07-09T03:57:57;26.98;;;18.65;;
41293;SDS011;27037;52.010;4.446;2023-07-09T04:00:23;26.65;;;17.88;;
41293;SDS011;27037;52.010;4.446;2023-07-09T04:02:51;26.75;;;18.88;;
41293;SDS011;27037;52.010;4.446;2023-07-09T04:05:17;26.25;;;18.65;;
41293;SDS011;27037;52.010;4.446;2023-07-09T04:07:43;27.75;;;18.98;;
41293;SDS011;27037;52.010;4.446;2023-07-09T04:10:09;27.80;;;19.65;;
41293;SDS011;27037;52.010;4.446;2023-07-09T04:12:35;32.72;;;19.35;;
41293;SDS011;27037;52.010;4.446;2023-07-09T04:15:02;30.58;;;21.25;;
41293;SDS011;27037;52.010;4.446;2023-07-09T04:17:28;30.30;;;22.63;;
41293;SDS011;27037;52.010;4.446;2023-07-09T04:19:54;30.40;;;21.88;;
41293;SDS011;27037;52.010;4.446;2023-07-09T04:22:20;30.38;;;21.80;;
41293;SDS011;27037;52.010;4.446;2023-07-09T04:24:46;31.38;;;23.27;;
41293;SDS011;27037;52.010;4.446;2023-07-09T04:27:12;36.30;;;23.50;;
41293;SDS011;27037;52.010;4.446;2023-07-09T04:29:39;31.55;;;23.80;;
41293;SDS011;27037;52.010;4.446;2023-07-09T04:32:06;34.75;;;23.27;;
41293;SDS011;27037;52.010;4.446;2023-07-09T04:34:33;33.70;;;22.85;;
41293;SDS011;27037;52.010;4.446;2023-07-09T04:36:58;37.78;;;24.05;;
41293;SDS011;27037;52.010;4.446;2023-07-09T04:39:24;29.92;;;22.05;;
41293;SDS011;27037;52.010;4.446;2023-07-09T04:41:50;30.60;;;22.08;;
41293;SDS011;27037;52.010;4.446;2023-07-09T04:44:16;28.52;;;21.52;;
41293;SDS011;27037;52.010;4.446;2023-07-09T04:46:41;38.10;;;24.33;;
41293;SDS011;27037;52.010;4.446;2023-07-09T04:49:07;31.40;;;22.00;;
41293;SDS011;27037;52.010;4.446;2023-07-09T04:51:33;29.73;;;22.15;;
41293;SDS011;27037;52.010;4.446;2023-07-09T04:53:58;37.17;;;22.83;;
41293;SDS011;27037;52.010;4.446;2023-07-09T04:56:28;33.00;;;22.23;;
41293;SDS011;27037;52.010;4.446;2023-07-09T04:58:55;30.15;;;21.67;;
41293;SDS011;27037;52.010;4.446;2023-07-09T05:01:20;30.50;;;22.35;;
41293;SDS011;27037;52.010;4.446;2023-07-09T05:03:46;32.55;;;22.67;;
41293;SDS011;27037;52.010;4.446;2023-07-09T05:06:12;31.98;;;22.65;;
41293;SDS011;27037;52.010;4.446;2023-07-09T05:08:38;31.88;;;22.85;;
41293;SDS011;27037;52.010;4.446;2023-07-09T05:11:03;38.55;;;24.67;;
41293;SDS011;27037;52.010;4.446;2023-07-09T05:13:29;35.45;;;26.23;;
41293;SDS011;27037;52.010;4.446;2023-07-09T05:15:54;43.10;;;28.23;;
41293;SDS011;27037;52.010;4.446;2023-07-09T05:18:20;39.80;;;28.13;;
41293;SDS011;27037;52.010;4.446;2023-07-09T05:20:46;38.92;;;28.73;;
41293;SDS011;27037;52.010;4.446;2023-07-09T05:23:13;44.03;;;32.38;;
41293;SDS011;27037;52.010;4.446;2023-07-09T05:25:38;47.45;;;33.33;;
41293;SDS011;27037;52.010;4.446;2023-07-09T05:28:04;50.05;;;35.67;;
41293;SDS011;27037;52.010;4.446;2023-07-09T05:30:30;48.67;;;33.50;;
41293;SDS011;27037;52.010;4.446;2023-07-09T05:32:56;52.13;;;34.95;;
41293;SDS011;27037;52.010;4.446;2023-07-09T05:35:23;49.22;;;35.30;;
41293;SDS011;27037;52.010;4.446;2023-07-09T05:37:50;47.22;;;33.70;;
41293;SDS011;27037;52.010;4.446;2023-07-09T05:40:17;51.35;;;34.08;;
41293;SDS011;27037;52.010;4.446;2023-07-09T05:42:42;45.00;;;32.15;;
41293;SDS011;27037;52.010;4.446;2023-07-09T05:45:08;46.25;;;31.95;;
41293;SDS011;27037;52.010;4.446;2023-07-09T05:47:34;45.45;;;31.25;;
41293;SDS011;27037;52.010;4.446;2023-07-09T05:50:00;41.38;;;30.73;;
41293;SDS011;27037;52.010;4.446;2023-07-09T05:52:25;42.17;;;28.63;;
41293;SDS011;27037;52.010;4.446;2023-07-09T05:54:54;38.45;;;28.65;;
41293;SDS011;27037;52.010;4.446;2023-07-09T05:57:20;35.65;;;27.77;;
41293;SDS011;27037;52.010;4.446;2023-07-09T05:59:46;37.55;;;26.98;;
41293;SDS011;27037;52.010;4.446;2023-07-09T06:02:13;38.17;;;28.50;;
41293;SDS011;27037;52.010;4.446;2023-07-09T06:04:40;39.55;;;27.88;;
41293;SDS011;27037;52.010;4.446;2023-07-09T06:07:06;40.42;;;26.80;;
41293;SDS011;27037;52.010;4.446;2023-07-09T06:09:32;40.42;;;29.30;;
41293;SDS011;27037;52.010;4.446;2023-07-09T06:11:58;40.67;;;30.77;;
41293;SDS011;27037;52.010;4.446;2023-07-09T06:14:23;38.58;;;29.35;;
41293;SDS011;27037;52.010;4.446;2023-07-09T06:16:50;37.15;;;27.23;;
41293;SDS011;27037;52.010;4.446;2023-07-09T06:19:15;41.15;;;28.05;;
41293;SDS011;27037;52.010;4.446;2023-07-09T06:21:41;38.67;;;25.88;;
41293;SDS011;27037;52.010;4.446;2023-07-09T06:24:07;37.55;;;26.23;;
41293;SDS011;27037;52.010;4.446;2023-07-09T06:26:33;31.42;;;23.55;;
41293;SDS011;27037;52.010;4.446;2023-07-09T06:28:59;36.50;;;23.42;;
41293;SDS011;27037;52.010;4.446;2023-07-09T06:31:25;30.77;;;20.88;;
41293;SDS011;27037;52.010;4.446;2023-07-09T06:33:51;24.33;;;17.08;;
41293;SDS011;27037;52.010;4.446;2023-07-09T06:36:17;20.02;;;14.15;;
41293;SDS011;27037;52.010;4.446;2023-07-09T06:38:43;19.05;;;11.80;;
41293;SDS011;27037;52.010;4.446;2023-07-09T06:41:09;18.42;;;11.25;;
41293;SDS011;27037;52.010;4.446;2023-07-09T06:43:36;21.67;;;11.70;;
41293;SDS011;27037;52.010;4.446;2023-07-09T06:46:05;21.38;;;11.73;;
41293;SDS011;27037;52.010;4.446;2023-07-09T06:48:33;16.48;;;11.35;;
41293;SDS011;27037;52.010;4.446;2023-07-09T06:50:59;17.88;;;12.80;;
41293;SDS011;27037;52.010;4.446;2023-07-09T06:53:25;22.40;;;13.55;;
41293;SDS011;27037;52.010;4.446;2023-07-09T06:55:52;20.30;;;13.07;;
41293;SDS011;27037;52.010;4.446;2023-07-09T06:58:20;18.15;;;13.00;;
41293;SDS011;27037;52.010;4.446;2023-07-09T07:00:48;22.63;;;13.00;;
41293;SDS011;27037;52.010;4.446;2023-07-09T07:03:14;22.70;;;13.70;;
41293;SDS011;27037;52.010;4.446;2023-07-09T07:05:47;17.67;;;12.80;;
41293;SDS011;27037;52.010;4.446;2023-07-09T07:08:15;25.05;;;14.18;;
41293;SDS011;27037;52.010;4.446;2023-07-09T07:10:43;20.35;;;13.15;;
41293;SDS011;27037;52.010;4.446;2023-07-09T07:13:09;15.90;;;11.77;;
41293;SDS011;27037;52.010;4.446;2023-07-09T07:15:36;16.23;;;10.20;;
41293;SDS011;27037;52.010;4.446;2023-07-09T07:18:03;24.52;;;10.60;;
41293;SDS011;27037;52.010;4.446;2023-07-09T07:20:29;19.20;;;10.20;;
41293;SDS011;27037;52.010;4.446;2023-07-09T07:22:55;18.00;;;11.63;;
41293;SDS011;27037;52.010;4.446;2023-07-09T07:25:22;18.92;;;10.98;;
41293;SDS011;27037;52.010;4.446;2023-07-09T07:27:47;24.23;;;11.65;;
41293;SDS011;27037;52.010;4.446;2023-07-09T07:30:13;15.82;;;10.57;;
41293;SDS011;27037;52.010;4.446;2023-07-09T07:32:44;20.25;;;11.32;;
41293;SDS011;27037;52.010;4.446;2023-07-09T07:35:11;16.77;;;11.10;;
41293;SDS011;27037;52.010;4.446;2023-07-09T07:37:38;18.33;;;11.13;;
41293;SDS011;27037;52.010;4.446;2023-07-09T07:40:07;20.05;;;11.13;;
41293;SDS011;27037;52.010;4.446;2023-07-09T07:42:33;19.30;;;11.13;;
41293;SDS011;27037;52.010;4.446;2023-07-09T07:44:59;15.23;;;10.68;;
41293;SDS011;27037;52.010;4.446;2023-07-09T07:47:25;19.92;;;10.48;;
41293;SDS011;27037;52.010;4.446;2023-07-09T07:49:52;15.93;;;9.90;;
41293;SDS011;27037;52.010;4.446;2023-07-09T07:52:18;15.18;;;10.23;;
41293;SDS011;27037;52.010;4.446;2023-07-09T07:54:44;18.27;;;10.57;;
41293;SDS011;27037;52.010;4.446;2023-07-09T07:57:10;15.43;;;9.85;;
41293;SDS011;27037;52.010;4.446;2023-07-09T07:59:36;15.45;;;9.75;;
41293;SDS011;27037;52.010;4.446;2023-07-09T08:02:03;18.95;;;9.18;;
41293;SDS011;27037;52.010;4.446;2023-07-09T08:04:30;18.33;;;9.25;;
41293;SDS011;27037;52.010;4.446;2023-07-09T08:06:56;14.40;;;8.90;;
41293;SDS011;27037;52.010;4.446;2023-07-09T08:09:23;13.75;;;7.95;;
41293;SDS011;27037;52.010;4.446;2023-07-09T08:11:49;11.57;;;7.65;;
41293;SDS011;27037;52.010;4.446;2023-07-09T08:14:14;18.17;;;7.78;;
41293;SDS011;27037;52.010;4.446;2023-07-09T08:16:40;10.15;;;7.20;;
41293;SDS011;27037;52.010;4.446;2023-07-09T08:19:06;12.52;;;7.13;;
41293;SDS011;27037;52.010;4.446;2023-07-09T08:21:32;12.77;;;6.63;;
41293;SDS011;27037;52.010;4.446;2023-07-09T08:23:57;10.60;;;6.53;;
41293;SDS011;27037;52.010;4.446;2023-07-09T08:26:23;12.60;;;5.90;;
41293;SDS011;27037;52.010;4.446;2023-07-09T08:28:51;9.70;;;5.47;;
41293;SDS011;27037;52.010;4.446;2023-07-09T08:31:17;9.88;;;5.85;;
41293;SDS011;27037;52.010;4.446;2023-07-09T08:33:43;9.80;;;5.38;;
41293;SDS011;27037;52.010;4.446;2023-07-09T08:36:08;9.55;;;5.30;;
41293;SDS011;27037;52.010;4.446;2023-07-09T08:38:34;7.80;;;5.10;;
41293;SDS011;27037;52.010;4.446;2023-07-09T08:41:02;9.25;;;5.40;;
41293;SDS011;27037;52.010;4.446;2023-07-09T08:43:46;8.75;;;5.68;;
41293;SDS011;27037;52.010;4.446;2023-07-09T08:49:16;10.82;;;4.85;;
41293;SDS011;27037;52.010;4.446;2023-07-09T08:51:46;6.95;;;4.60;;
41293;SDS011;27037;52.010;4.446;2023-07-09T08:56:52;7.10;;;4.90;;
41293;SDS011;27037;52.010;4.446;2023-07-09T08:59:19;8.73;;;4.32;;
41293;SDS011;27037;52.010;4.446;2023-07-09T09:01:52;10.00;;;4.45;;
41293;SDS011;27037;52.010;4.446;2023-07-09T09:04:29;7.75;;;4.20;;
41293;SDS011;27037;52.010;4.446;2023-07-09T09:10:07;6.05;;;3.65;;
41293;SDS011;27037;52.010;4.446;2023-07-09T09:12:43;7.25;;;4.00;;
41293;SDS011;27037;52.010;4.446;2023-07-09T09:15:34;8.43;;;3.60;;
41293;SDS011;27037;52.010;4.446;2023-07-09T09:18:17;5.05;;;3.50;;
41293;SDS011;27037;52.010;4.446;2023-07-09T09:20:54;5.03;;;3.70;;
41293;SDS011;27037;52.010;4.446;2023-07-09T09:23:48;6.00;;;3.40;;
41293;SDS011;27037;52.010;4.446;2023-07-09T09:28:49;6.47;;;3.28;;
41293;SDS011;27037;52.010;4.446;2023-07-09T09:31:15;6.30;;;3.13;;
41293;SDS011;27037;52.010;4.446;2023-07-09T09:33:43;5.05;;;2.83;;
41293;SDS011;27037;52.010;4.446;2023-07-09T09:36:14;5.25;;;2.92;;
41293;SDS011;27037;52.010;4.446;2023-07-09T09:38:42;5.90;;;2.70;;
41293;SDS011;27037;52.010;4.446;2023-07-09T09:41:29;6.63;;;2.67;;
41293;SDS011;27037;52.010;4.446;2023-07-09T09:43:56;5.97;;;2.70;;
41293;SDS011;27037;52.010;4.446;2023-07-09T09:46:25;5.40;;;2.85;;
41293;SDS011;27037;52.010;4.446;2023-07-09T09:48:55;5.32;;;2.90;;
41293;SDS011;27037;52.010;4.446;2023-07-09T09:51:24;5.60;;;2.70;;
41293;SDS011;27037;52.010;4.446;2023-07-09T09:53:55;4.10;;;3.20;;
41293;SDS011;27037;52.010;4.446;2023-07-09T09:56:27;5.47;;;3.22;;
41293;SDS011;27037;52.010;4.446;2023-07-09T09:58:54;4.05;;;2.92;;
41293;SDS011;27037;52.010;4.446;2023-07-09T10:01:25;5.50;;;3.17;;
41293;SDS011;27037;52.010;4.446;2023-07-09T10:03:55;6.03;;;3.30;;
41293;SDS011;27037;52.010;4.446;2023-07-09T10:06:25;7.28;;;2.88;;
41293;SDS011;27037;52.010;4.446;2023-07-09T10:09:04;5.28;;;2.90;;
41293;SDS011;27037;52.010;4.446;2023-07-09T10:17:03;7.50;;;2.88;;
41293;SDS011;27037;52.010;4.446;2023-07-09T10:20:02;6.55;;;3.10;;
41293;SDS011;27037;52.010;4.446;2023-07-09T10:25:45;6.05;;;2.88;;
41293;SDS011;27037;52.010;4.446;2023-07-09T10:31:06;5.20;;;2.90;;
41293;SDS011;27037;52.010;4.446;2023-07-09T10:37:12;5.07;;;3.30;;
41293;SDS011;27037;52.010;4.446;2023-07-09T10:39:50;7.78;;;3.72;;
41293;SDS011;27037;52.010;4.446;2023-07-09T10:42:29;7.65;;;3.65;;
41293;SDS011;27037;52.010;4.446;2023-07-09T10:45:03;5.15;;;3.28;;
41293;SDS011;27037;52.010;4.446;2023-07-09T10:47:40;6.53;;;3.83;;
41293;SDS011;27037;52.010;4.446;2023-07-09T10:50:15;4.63;;;3.40;;
41293;SDS011;27037;52.010;4.446;2023-07-09T10:52:46;10.88;;;3.70;;
41293;SDS011;27037;52.010;4.446;2023-07-09T10:55:17;6.25;;;4.07;;
41293;SDS011;27037;52.010;4.446;2023-07-09T10:57:54;8.20;;;4.00;;
41293;SDS011;27037;52.010;4.446;2023-07-09T11:00:34;7.20;;;3.95;;
41293;SDS011;27037;52.010;4.446;2023-07-09T11:03:10;7.60;;;4.00;;
41293;SDS011;27037;52.010;4.446;2023-07-09T11:05:44;7.22;;;4.65;;
41293;SDS011;27037;52.010;4.446;2023-07-09T11:08:12;7.65;;;3.97;;
41293;SDS011;27037;52.010;4.446;2023-07-09T11:13:37;13.00;;;5.05;;
41293;SDS011;27037;52.010;4.446;2023-07-09T11:18:51;8.98;;;5.25;;
41293;SDS011;27037;52.010;4.446;2023-07-09T11:21:23;8.52;;;4.40;;
41293;SDS011;27037;52.010;4.446;2023-07-09T11:23:50;7.30;;;4.47;;
41293;SDS011;27037;52.010;4.446;2023-07-09T11:34:09;4.28;;;3.28;;
41293;SDS011;27037;52.010;4.446;2023-07-09T11:39:27;6.22;;;2.90;;
41293;SDS011;27037;52.010;4.446;2023-07-09T11:41:53;8.30;;;3.20;;
41293;SDS011;27037;52.010;4.446;2023-07-09T11:49:31;7.82;;;3.33;;
41293;SDS011;27037;52.010;4.446;2023-07-09T11:52:08;8.23;;;3.17;;
41293;SDS011;27037;52.010;4.446;2023-07-09T11:54:36;6.28;;;3.70;;
41293;SDS011;27037;52.010;4.446;2023-07-09T11:57:02;9.48;;;3.10;;
41293;SDS011;27037;52.010;4.446;2023-07-09T11:59:37;5.28;;;3.20;;
41293;SDS011;27037;52.010;4.446;2023-07-09T12:02:04;6.93;;;3.35;;
41293;SDS011;27037;52.010;4.446;2023-07-09T12:04:32;6.93;;;3.58;;
41293;SDS011;27037;52.010;4.446;2023-07-09T12:07:00;5.57;;;3.20;;
41293;SDS011;27037;52.010;4.446;2023-07-09T12:09:33;5.72;;;3.38;;
41293;SDS011;27037;52.010;4.446;2023-07-09T12:12:15;9.18;;;3.60;;
41293;SDS011;27037;52.010;4.446;2023-07-09T12:14:45;7.75;;;3.70;;
41293;SDS011;27037;52.010;4.446;2023-07-09T12:17:11;9.77;;;4.00;;
41293;SDS011;27037;52.010;4.446;2023-07-09T12:19:37;8.02;;;4.25;;
41293;SDS011;27037;52.010;4.446;2023-07-09T12:22:06;9.95;;;4.80;;
41293;SDS011;27037;52.010;4.446;2023-07-09T12:24:38;9.82;;;4.90;;
41293;SDS011;27037;52.010;4.446;2023-07-09T12:32:28;17.27;;;5.28;;
41293;SDS011;27037;52.010;4.446;2023-07-09T12:34:54;15.07;;;5.63;;
41293;SDS011;27037;52.010;4.446;2023-07-09T12:37:21;14.85;;;5.60;;
41293;SDS011;27037;52.010;4.446;2023-07-09T12:39:49;17.52;;;5.10;;
41293;SDS011;27037;52.010;4.446;2023-07-09T12:42:29;16.42;;;5.05;;
41293;SDS011;27037;52.010;4.446;2023-07-09T12:44:57;16.58;;;5.50;;
41293;SDS011;27037;52.010;4.446;2023-07-09T12:47:23;19.42;;;5.78;;
41293;SDS011;27037;52.010;4.446;2023-07-09T12:49:50;18.15;;;5.35;;
41293;SDS011;27037;52.010;4.446;2023-07-09T12:52:24;20.05;;;6.38;;
41293;SDS011;27037;52.010;4.446;2023-07-09T12:59:51;18.63;;;7.18;;
41293;SDS011;27037;52.010;4.446;2023-07-09T13:02:21;22.63;;;7.78;;
41293;SDS011;27037;52.010;4.446;2023-07-09T13:04:48;22.88;;;8.07;;
41293;SDS011;27037;52.010;4.446;2023-07-09T13:07:24;15.65;;;7.78;;
41293;SDS011;27037;52.010;4.446;2023-07-09T13:09:51;21.90;;;8.75;;
41293;SDS011;27037;52.010;4.446;2023-07-09T13:12:19;21.45;;;9.00;;
41293;SDS011;27037;52.010;4.446;2023-07-09T13:14:54;20.75;;;9.32;;
41293;SDS011;27037;52.010;4.446;2023-07-09T13:19:46;18.25;;;8.55;;
41293;SDS011;27037;52.010;4.446;2023-07-09T13:22:16;20.52;;;7.85;;
41293;SDS011;27037;52.010;4.446;2023-07-09T13:24:44;19.17;;;8.27;;
41293;SDS011;27037;52.010;4.446;2023-07-09T13:27:14;21.25;;;8.15;;
41293;SDS011;27037;52.010;4.446;2023-07-09T13:29:41;17.20;;;8.05;;
41293;SDS011;27037;52.010;4.446;2023-07-09T13:32:12;14.70;;;7.28;;
41293;SDS011;27037;52.010;4.446;2023-07-09T13:34:39;15.65;;;7.55;;
41293;SDS011;27037;52.010;4.446;2023-07-09T13:37:06;21.38;;;8.40;;
41293;SDS011;27037;52.010;4.446;2023-07-09T13:39:36;23.05;;;8.07;;
41293;SDS011;27037;52.010;4.446;2023-07-09T13:42:02;15.10;;;7.25;;
41293;SDS011;27037;52.010;4.446;2023-07-09T13:44:29;15.70;;;7.57;;
41293;SDS011;27037;52.010;4.446;2023-07-09T13:46:58;15.98;;;7.10;;
41293;SDS011;27037;52.010;4.446;2023-07-09T13:49:24;14.20;;;7.10;;
41293;SDS011;27037;52.010;4.446;2023-07-09T13:51:53;14.75;;;6.75;;
41293;SDS011;27037;52.010;4.446;2023-07-09T13:56:49;13.27;;;6.15;;
41293;SDS011;27037;52.010;4.446;2023-07-09T13:59:16;10.68;;;6.00;;
41293;SDS011;27037;52.010;4.446;2023-07-09T14:01:47;14.38;;;5.72;;
41293;SDS011;27037;52.010;4.446;2023-07-09T14:04:15;11.48;;;5.50;;
41293;SDS011;27037;52.010;4.446;2023-07-09T14:06:42;15.85;;;5.43;;
41293;SDS011;27037;52.010;4.446;2023-07-09T14:09:09;10.30;;;5.60;;
41293;SDS011;27037;52.010;4.446;2023-07-09T14:11:37;12.45;;;5.07;;
41293;SDS011;27037;52.010;4.446;2023-07-09T14:14:51;9.20;;;5.00;;
41293;SDS011;27037;52.010;4.446;2023-07-09T14:16:57;14.05;;;5.55;;
41293;SDS011;27037;52.010;4.446;2023-07-09T14:19:24;29.58;;;7.82;;
41293;SDS011;27037;52.010;4.446;2023-07-09T14:21:51;38.55;;;10.65;;
41293;SDS011;27037;52.010;4.446;2023-07-09T14:26:54;18.98;;;7.78;;
41293;SDS011;27037;52.010;4.446;2023-07-09T14:29:22;19.27;;;6.97;;
41293;SDS011;27037;52.010;4.446;2023-07-09T14:31:48;15.60;;;7.15;;
41293;SDS011;27037;52.010;4.446;2023-07-09T14:34:19;16.98;;;7.72;;
41293;SDS011;27037;52.010;4.446;2023-07-09T14:36:57;16.27;;;8.43;;
41293;SDS011;27037;52.010;4.446;2023-07-09T14:39:25;27.35;;;9.93;;
41293;SDS011;27037;52.010;4.446;2023-07-09T14:41:52;23.60;;;10.10;;
41293;SDS011;27037;52.010;4.446;2023-07-09T14:46:52;15.43;;;7.35;;
41293;SDS011;27037;52.010;4.446;2023-07-09T14:49:19;19.95;;;7.97;;
41293;SDS011;27037;52.010;4.446;2023-07-09T14:51:45;18.85;;;8.27;;
41293;SDS011;27037;52.010;4.446;2023-07-09T14:56:50;17.20;;;8.32;;
41293;SDS011;27037;52.010;4.446;2023-07-09T14:59:16;13.70;;;7.32;;
41293;SDS011;27037;52.010;4.446;2023-07-09T15:01:43;18.25;;;8.20;;
41293;SDS011;27037;52.010;4.446;2023-07-09T15:06:50;15.10;;;8.38;;
41293;SDS011;27037;52.010;4.446;2023-07-09T15:09:18;16.52;;;7.60;;
41293;SDS011;27037;52.010;4.446;2023-07-09T15:11:46;13.05;;;7.50;;
41293;SDS011;27037;52.010;4.446;2023-07-09T15:14:15;14.02;;;7.72;;
41293;SDS011;27037;52.010;4.446;2023-07-09T15:16:40;16.52;;;7.03;;
41293;SDS011;27037;52.010;4.446;2023-07-09T15:19:13;15.68;;;8.32;;
41293;SDS011;27037;52.010;4.446;2023-07-09T15:21:39;14.00;;;7.65;;
41293;SDS011;27037;52.010;4.446;2023-07-09T15:24:05;14.82;;;7.57;;
41293;SDS011;27037;52.010;4.446;2023-07-09T15:26:39;18.10;;;8.00;;
41293;SDS011;27037;52.010;4.446;2023-07-09T15:29:09;17.17;;;7.70;;
41293;SDS011;27037;52.010;4.446;2023-07-09T15:31:39;14.02;;;6.03;;
41293;SDS011;27037;52.010;4.446;2023-07-09T15:34:05;8.30;;;4.30;;
41293;SDS011;27037;52.010;4.446;2023-07-09T15:36:31;6.65;;;3.10;;
41293;SDS011;27037;52.010;4.446;2023-07-09T15:38:57;4.85;;;2.20;;
41293;SDS011;27037;52.010;4.446;2023-07-09T15:41:23;6.28;;;2.80;;
41293;SDS011;27037;52.010;4.446;2023-07-09T15:43:48;5.10;;;2.70;;
41293;SDS011;27037;52.010;4.446;2023-07-09T15:46:19;7.00;;;2.90;;
41293;SDS011;27037;52.010;4.446;2023-07-09T15:48:46;6.78;;;2.30;;
41293;SDS011;27037;52.010;4.446;2023-07-09T15:51:12;6.43;;;2.88;;
41293;SDS011;27037;52.010;4.446;2023-07-09T15:53:38;5.75;;;2.58;;